createdAt,value
2023-03-03T00:01:09.188Z,101813.53
2023-03-03T00:03:37.064Z,101809.13
2023-03-03T00:06:06.365Z,101805.47
2023-03-03T00:08:34.091Z,101810.00
2023-03-03T00:11:06.155Z,101809.88
2023-03-03T00:13:34.935Z,101809.09
2023-03-03T00:16:14.726Z,101806.50
2023-03-03T00:18:46.829Z,101804.47
2023-03-03T00:21:26.029Z,101800.84
2023-03-03T00:23:55.163Z,101802.81
2023-03-03T00:26:30.468Z,101796.47
2023-03-03T00:28:58.231Z,101803.66
2023-03-03T00:31:31.987Z,101809.22
2023-03-03T00:34:12.912Z,101809.97
2023-03-03T00:36:42.215Z,101805.41
2023-03-03T00:39:20.402Z,101806.38
2023-03-03T00:41:50.580Z,101802.00
2023-03-03T00:44:41.233Z,101797.81
2023-03-03T00:47:26.443Z,101800.09
2023-03-03T00:49:56.074Z,101789.59
2023-03-03T00:52:29.726Z,101794.22
2023-03-03T00:54:57.445Z,101794.72
2023-03-03T00:57:26.576Z,101806.31
2023-03-03T00:59:54.837Z,101800.38
2023-03-03T01:02:22.906Z,101796.72
2023-03-03T01:04:53.288Z,101799.38
2023-03-03T01:07:21.105Z,101797.91
2023-03-03T01:09:48.850Z,101789.91
2023-03-03T01:12:17.071Z,101794.16
2023-03-03T01:14:46.311Z,101792.16
2023-03-03T01:17:14.083Z,101792.38
2023-03-03T01:19:41.852Z,101782.84
2023-03-03T01:22:09.661Z,101795.06
2023-03-03T01:24:37.660Z,101795.84
2023-03-03T01:27:05.504Z,101796.69
2023-03-03T01:29:33.306Z,101786.84
2023-03-03T01:32:02.457Z,101786.84
2023-03-03T01:34:30.209Z,101789.38
2023-03-03T01:36:57.939Z,101781.56
2023-03-03T01:39:25.693Z,101779.94
2023-03-03T01:41:53.516Z,101788.72
2023-03-03T01:44:21.360Z,101784.34
2023-03-03T01:46:56.110Z,101785.19
2023-03-03T01:49:30.134Z,101787.94
2023-03-03T01:52:00.938Z,101785.28
2023-03-03T01:54:32.223Z,101780.13
2023-03-03T01:57:04.229Z,101784.72
2023-03-03T01:59:38.278Z,101787.19
2023-03-03T02:02:06.470Z,101783.56
2023-03-03T02:04:36.312Z,101782.78
2023-03-03T02:07:09.925Z,101783.63
2023-03-03T02:09:46.051Z,101780.06
2023-03-03T02:12:17.888Z,101781.91
2023-03-03T02:14:45.913Z,101783.56
2023-03-03T02:17:13.891Z,101781.81
2023-03-03T02:19:54.252Z,101783.78
2023-03-03T02:22:32.756Z,101770.56
2023-03-03T02:25:04.049Z,101773.28
2023-03-03T02:27:34.790Z,101776.94
2023-03-03T02:30:11.885Z,101771.53
2023-03-03T02:32:39.632Z,101771.41
2023-03-03T02:35:28.347Z,101776.66
2023-03-03T02:38:00.624Z,101774.03
2023-03-03T02:40:32.981Z,101774.94
2023-03-03T02:43:06.064Z,101761.75
2023-03-03T02:45:33.785Z,101765.25
2023-03-03T02:48:01.493Z,101767.91
2023-03-03T02:50:29.216Z,101760.16
2023-03-03T02:52:56.907Z,101769.09
2023-03-03T02:55:24.694Z,101769.94
2023-03-03T02:57:52.408Z,101763.78
2023-03-03T03:00:22.279Z,101759.34
2023-03-03T03:02:50.097Z,101763.66
2023-03-03T03:05:17.896Z,101763.66
2023-03-03T03:07:45.677Z,101765.44
2023-03-03T03:10:13.397Z,101760.09
2023-03-03T03:12:41.156Z,101757.41
2023-03-03T03:15:10.436Z,101758.19
2023-03-03T03:17:40.162Z,101763.72
2023-03-03T03:20:08.459Z,101765.38
2023-03-03T03:22:36.418Z,101763.66
2023-03-03T03:25:04.141Z,101759.13
2023-03-03T03:27:31.862Z,101759.28
2023-03-03T03:29:59.675Z,101761.88
2023-03-03T03:32:27.448Z,101766.47
2023-03-03T03:34:56.624Z,101768.47
2023-03-03T03:37:24.320Z,101772.91
2023-03-03T03:39:52.099Z,101769.38
2023-03-03T03:42:19.892Z,101766.78
2023-03-03T03:44:47.749Z,101772.97
2023-03-03T03:47:15.459Z,101766.78
2023-03-03T03:49:43.158Z,101768.47
2023-03-03T03:52:12.286Z,101765.66
2023-03-03T03:54:40.063Z,101770.06
2023-03-03T03:57:08.366Z,101769.97
2023-03-03T03:59:36.137Z,101770.94
2023-03-03T04:02:03.941Z,101762.13
2023-03-03T04:04:31.876Z,101765.75
2023-03-03T04:06:59.634Z,101765.69
2023-03-03T04:09:28.772Z,101770.94
2023-03-03T04:11:56.484Z,101770.94
2023-03-03T04:14:24.220Z,101778.16
2023-03-03T04:16:51.996Z,101772.16
2023-03-03T04:19:19.905Z,101768.63
2023-03-03T04:21:47.637Z,101770.41
2023-03-03T04:24:15.391Z,101773.13
2023-03-03T04:26:44.461Z,101766.94
2023-03-03T04:29:12.447Z,101774.94
2023-03-03T04:31:40.183Z,101777.41
2023-03-03T04:34:07.948Z,101773.00
2023-03-03T04:36:35.692Z,101774.00
2023-03-03T04:39:03.430Z,101766.88
2023-03-03T04:41:31.310Z,101763.25
2023-03-03T04:44:00.432Z,101771.47
2023-03-03T04:46:28.324Z,101758.16
2023-03-03T04:48:56.950Z,101765.25
2023-03-03T04:51:24.967Z,101769.63
2023-03-03T04:53:52.759Z,101773.88
2023-03-03T04:56:20.516Z,101779.25
2023-03-03T04:58:48.247Z,101782.75
2023-03-03T05:01:18.610Z,101791.63
2023-03-03T05:03:46.691Z,101785.38
2023-03-03T05:06:14.455Z,101789.69
2023-03-03T05:08:43.183Z,101781.84
2023-03-03T05:11:10.953Z,101784.28
2023-03-03T05:13:38.892Z,101780.88
2023-03-03T05:16:07.693Z,101779.16
2023-03-03T05:18:37.222Z,101778.31
2023-03-03T05:21:05.492Z,101780.91
2023-03-03T05:23:33.279Z,101773.91
2023-03-03T05:26:01.042Z,101781.72
2023-03-03T05:28:29.557Z,101778.19
2023-03-03T05:30:57.490Z,101772.09
2023-03-03T05:33:25.319Z,101771.31
2023-03-03T05:35:57.612Z,101771.34
2023-03-03T05:38:26.103Z,101769.53
2023-03-03T05:40:54.711Z,101773.88
2023-03-03T05:43:22.534Z,101775.63
2023-03-03T05:45:55.935Z,101781.81
2023-03-03T05:48:23.783Z,101781.84
2023-03-03T05:50:51.499Z,101779.19
2023-03-03T05:53:20.783Z,101780.28
2023-03-03T05:55:48.493Z,101785.59
2023-03-03T05:58:16.235Z,101788.19
2023-03-03T06:00:44.016Z,101790.75
2023-03-03T06:03:11.829Z,101787.31
2023-03-03T06:05:39.567Z,101792.56
2023-03-03T06:08:07.336Z,101791.75
2023-03-03T06:10:36.569Z,101790.91
2023-03-03T06:13:04.540Z,101799.72
2023-03-03T06:15:32.398Z,101797.03
2023-03-03T06:18:00.177Z,101796.19
2023-03-03T06:20:28.001Z,101804.94
2023-03-03T06:22:55.789Z,101803.19
2023-03-03T06:25:23.560Z,101804.91
2023-03-03T06:27:52.677Z,101808.34
2023-03-03T06:30:20.740Z,101809.28
2023-03-03T06:32:48.559Z,101812.81
2023-03-03T06:35:16.514Z,101822.44
2023-03-03T06:37:44.232Z,101819.81
2023-03-03T06:40:13.157Z,101827.81
2023-03-03T06:42:40.929Z,101824.25
2023-03-03T06:45:11.249Z,101826.00
2023-03-03T06:47:38.997Z,101840.97
2023-03-03T06:50:07.898Z,101848.03
2023-03-03T06:52:35.761Z,101841.00
2023-03-03T06:55:13.064Z,101856.00
2023-03-03T06:57:41.881Z,101847.19
2023-03-03T07:00:18.353Z,101863.91
2023-03-03T07:02:46.140Z,101863.94
2023-03-03T07:05:17.576Z,101866.56
2023-03-03T07:07:45.760Z,101875.31
2023-03-03T07:10:25.245Z,101869.09
2023-03-03T07:12:53.188Z,101876.22
2023-03-03T07:15:24.735Z,101878.00
2023-03-03T07:17:58.150Z,101874.47
2023-03-03T07:20:33.578Z,101879.75
2023-03-03T07:23:01.864Z,101879.72
2023-03-03T07:25:32.857Z,101880.63
2023-03-03T07:28:12.568Z,101885.00
2023-03-03T07:30:43.141Z,101885.00
2023-03-03T07:33:22.266Z,101891.19
2023-03-03T07:35:50.276Z,101885.03
2023-03-03T07:38:30.816Z,101896.47
2023-03-03T07:41:00.650Z,101902.63
2023-03-03T07:43:38.755Z,101899.94
2023-03-03T07:46:24.860Z,101909.59
2023-03-03T07:48:53.697Z,101907.78
2023-03-03T07:51:25.368Z,101911.38
2023-03-03T07:53:54.943Z,101916.56
2023-03-03T07:56:29.902Z,101910.38
2023-03-03T07:58:59.465Z,101918.25
2023-03-03T08:01:40.380Z,101921.78
2023-03-03T08:04:19.386Z,101922.53
2023-03-03T08:06:50.431Z,101919.13
2023-03-03T08:09:38.104Z,101927.03
2023-03-03T08:12:37.236Z,101927.81
2023-03-03T08:15:32.710Z,101923.41
2023-03-03T08:18:02.961Z,101932.22
2023-03-03T08:20:53.125Z,101927.66
2023-03-03T08:23:21.920Z,101925.91
2023-03-03T08:25:51.299Z,101930.09
2023-03-03T08:28:19.841Z,101934.47
2023-03-03T08:30:48.561Z,101935.44
2023-03-03T08:33:19.110Z,101944.03
2023-03-03T08:35:48.317Z,101940.47
2023-03-03T08:38:18.474Z,101941.38
2023-03-03T08:40:46.889Z,101951.75
2023-03-03T08:43:17.288Z,101951.06
2023-03-03T08:45:47.279Z,101958.09
2023-03-03T08:48:15.434Z,101954.28
2023-03-03T08:50:45.551Z,101954.34
2023-03-03T08:53:14.763Z,101955.38
2023-03-03T08:55:43.030Z,101948.31
2023-03-03T08:58:10.803Z,101957.81
2023-03-03T09:00:38.625Z,101955.19
2023-03-03T09:03:07.178Z,101946.94
2023-03-03T09:05:36.092Z,101961.16
2023-03-03T09:08:06.091Z,101955.13
2023-03-03T09:10:35.477Z,101957.59
2023-03-03T09:13:09.472Z,101960.97
2023-03-03T09:15:39.447Z,101951.00
2023-03-03T09:18:15.920Z,101959.84
2023-03-03T09:20:45.297Z,101958.72
2023-03-03T09:23:36.084Z,101964.44
2023-03-03T09:26:28.099Z,101971.28
2023-03-03T09:28:59.733Z,101968.31
2023-03-03T09:31:33.868Z,101960.53
2023-03-03T09:34:02.128Z,101967.34
2023-03-03T09:36:31.403Z,101971.41
2023-03-03T09:39:01.592Z,101971.13
2023-03-03T09:41:56.112Z,101972.31
2023-03-03T09:44:52.467Z,101973.69
2023-03-03T09:47:40.509Z,101981.13
2023-03-03T09:50:20.473Z,101971.38
2023-03-03T09:52:55.205Z,101976.69
2023-03-03T09:55:40.583Z,101976.25
2023-03-03T09:58:21.550Z,101980.16
2023-03-03T10:01:00.632Z,101973.63
2023-03-03T10:03:53.159Z,101981.84
2023-03-03T10:06:26.466Z,101976.91
2023-03-03T10:09:04.966Z,101981.50
2023-03-03T10:11:43.027Z,101980.28
2023-03-03T10:14:35.257Z,101985.41
2023-03-03T10:17:18.517Z,101991.38
2023-03-03T10:19:54.976Z,101993.34
2023-03-03T10:22:32.559Z,101990.91
2023-03-03T10:25:09.803Z,101992.28
2023-03-03T10:27:58.707Z,101994.53
2023-03-03T10:30:46.149Z,101994.59
2023-03-03T10:33:27.982Z,102001.56
2023-03-03T10:36:19.612Z,102001.47
2023-03-03T10:38:57.313Z,101992.44
2023-03-03T10:41:43.206Z,101997.59
2023-03-03T10:44:29.312Z,101989.13
2023-03-03T10:47:10.180Z,101987.09
2023-03-03T10:49:51.127Z,101993.09
2023-03-03T10:52:33.852Z,101994.94
2023-03-03T10:55:20.929Z,101997.16
2023-03-03T10:58:04.016Z,101989.19
2023-03-03T11:00:39.921Z,101990.66
2023-03-03T11:03:31.583Z,101990.22
2023-03-03T11:06:02.533Z,101993.41
2023-03-03T11:08:40.305Z,101992.50
2023-03-03T11:11:16.555Z,101988.53
2023-03-03T11:13:49.829Z,101990.75
2023-03-03T11:16:27.750Z,101984.03
2023-03-03T11:19:09.523Z,102000.78
2023-03-03T11:21:47.318Z,101988.63
2023-03-03T11:24:28.155Z,101999.72
2023-03-03T11:27:14.208Z,102002.16
2023-03-03T11:29:56.026Z,101992.59
2023-03-03T11:32:34.755Z,102000.09
2023-03-03T11:35:17.803Z,101991.72
2023-03-03T11:37:50.984Z,101990.88
2023-03-03T11:40:23.426Z,101985.97
2023-03-03T11:43:01.497Z,101984.34
2023-03-03T11:45:35.218Z,101987.84
2023-03-03T11:48:10.184Z,101982.06
2023-03-03T11:50:43.252Z,101980.16
2023-03-03T11:53:27.775Z,101986.53
2023-03-03T11:56:01.172Z,101983.34
2023-03-03T11:58:31.926Z,101977.06
2023-03-03T12:01:09.530Z,101982.28
2023-03-03T12:03:44.567Z,101981.81
2023-03-03T12:06:25.864Z,101978.91
2023-03-03T12:09:16.355Z,101977.69
2023-03-03T12:11:51.116Z,101976.28
2023-03-03T12:14:37.047Z,101969.84
2023-03-03T12:17:12.235Z,101967.56
2023-03-03T12:19:53.659Z,101965.81
2023-03-03T12:22:33.514Z,101960.72
2023-03-03T12:25:31.314Z,101956.53
2023-03-03T12:28:05.576Z,101957.22
2023-03-03T12:30:58.176Z,101956.81
2023-03-03T12:33:38.900Z,101952.59
2023-03-03T12:36:24.199Z,101938.97
2023-03-03T12:38:57.612Z,101945.69
2023-03-03T12:41:31.035Z,101940.72
2023-03-03T12:44:06.492Z,101939.72
2023-03-03T12:46:45.575Z,101941.56
2023-03-03T12:49:14.124Z,101933.53
2023-03-03T12:52:00.005Z,101926.09
2023-03-03T12:54:47.633Z,101924.69
2023-03-03T12:57:27.384Z,101920.50
2023-03-03T13:00:16.815Z,101918.25
2023-03-03T13:02:52.503Z,101920.63
2023-03-03T13:05:28.373Z,101919.00
2023-03-03T13:08:08.001Z,101917.97
2023-03-03T13:10:42.860Z,101901.09
2023-03-03T13:13:17.752Z,101906.38
2023-03-03T13:15:55.871Z,101899.72
2023-03-03T13:18:35.148Z,101900.44
2023-03-03T13:21:09.326Z,101898.41
2023-03-03T13:23:48.344Z,101892.94
2023-03-03T13:26:21.205Z,101882.34
2023-03-03T13:29:00.745Z,101871.28
2023-03-03T13:31:34.838Z,101871.38
2023-03-03T13:34:03.399Z,101872.53
2023-03-03T13:36:35.851Z,101872.31
2023-03-03T13:39:19.240Z,101870.94
2023-03-03T13:41:52.119Z,101871.94
2023-03-03T13:44:25.807Z,101869.63
2023-03-03T13:47:03.977Z,101869.50
2023-03-03T13:49:47.686Z,101872.38
2023-03-03T13:52:22.225Z,101861.25
2023-03-03T13:55:21.973Z,101864.28
2023-03-03T13:58:01.062Z,101854.75
2023-03-03T14:00:38.609Z,101857.13
2023-03-03T14:03:37.199Z,101859.25
2023-03-03T14:06:09.196Z,101857.81
2023-03-03T14:08:55.662Z,101857.69
2023-03-03T14:11:30.159Z,101858.25
2023-03-03T14:14:08.631Z,101851.09
2023-03-03T14:16:50.777Z,101850.16
2023-03-03T14:19:24.733Z,101847.78
2023-03-03T14:22:06.198Z,101849.00
2023-03-03T14:24:55.386Z,101851.50
2023-03-03T14:27:28.040Z,101846.03
2023-03-03T14:29:55.808Z,101849.66
2023-03-03T14:32:43.133Z,101840.44
2023-03-03T14:35:20.158Z,101841.00
2023-03-03T14:37:48.400Z,101841.00
2023-03-03T14:40:20.829Z,101840.56
2023-03-03T14:42:55.703Z,101830.06
2023-03-03T14:45:32.563Z,101835.34
2023-03-03T14:48:01.906Z,101840.19
2023-03-03T14:50:36.353Z,101832.47
2023-03-03T14:53:13.970Z,101837.31
2023-03-03T14:55:43.497Z,101829.81
2023-03-03T14:58:31.846Z,101829.41
2023-03-03T15:01:15.284Z,101825.25
2023-03-03T15:03:49.192Z,101824.81
2023-03-03T15:06:35.507Z,101825.59
2023-03-03T15:09:25.761Z,101826.44
2023-03-03T15:11:54.756Z,101818.41
2023-03-03T15:14:31.232Z,101815.59
2023-03-03T15:17:19.310Z,101818.72
2023-03-03T15:19:57.509Z,101820.63
2023-03-03T15:22:40.799Z,101820.03
2023-03-03T15:25:18.749Z,101822.50
2023-03-03T15:27:52.566Z,101817.13
2023-03-03T15:30:28.165Z,101820.97
2023-03-03T15:33:05.073Z,101822.25
2023-03-03T15:35:45.789Z,101813.81
2023-03-03T15:38:26.259Z,101811.72
2023-03-03T15:41:01.695Z,101808.69
2023-03-03T15:43:37.572Z,101814.06
2023-03-03T15:46:22.306Z,101814.34
2023-03-03T15:49:06.439Z,101817.25
2023-03-03T15:52:03.211Z,101820.41
2023-03-03T15:54:43.951Z,101818.78
2023-03-03T15:57:22.511Z,101821.50
2023-03-03T16:00:08.134Z,101822.75
2023-03-03T16:02:50.086Z,101821.06
2023-03-03T16:05:23.618Z,101826.88
2023-03-03T16:08:01.871Z,101825.81
2023-03-03T16:10:41.184Z,101820.72
2023-03-03T16:13:23.972Z,101824.75
2023-03-03T16:16:05.415Z,101825.00
2023-03-03T16:18:44.438Z,101819.19
2023-03-03T16:21:24.684Z,101837.16
2023-03-03T16:23:53.550Z,101824.72
2023-03-03T16:26:48.825Z,101830.78
2023-03-03T16:29:31.352Z,101833.88
2023-03-03T16:32:04.654Z,101825.28
2023-03-03T16:34:38.194Z,101830.31
2023-03-03T16:37:17.188Z,101827.75
2023-03-03T16:39:55.195Z,101832.84
2023-03-03T16:42:28.811Z,101829.53
2023-03-03T16:45:13.082Z,101841.59
2023-03-03T16:47:55.930Z,101837.28
2023-03-03T16:50:32.236Z,101833.25
2023-03-03T16:53:08.891Z,101830.84
2023-03-03T16:55:39.535Z,101844.06
2023-03-03T16:58:20.867Z,101837.50
2023-03-03T17:00:55.894Z,101842.03
2023-03-03T17:03:50.249Z,101849.91
2023-03-03T17:06:24.650Z,101857.25
2023-03-03T17:09:26.704Z,101864.28
2023-03-03T17:12:09.993Z,101864.53
2023-03-03T17:15:00.090Z,101868.56
2023-03-03T17:17:37.703Z,101873.72
2023-03-03T17:20:19.051Z,101870.28
2023-03-03T17:23:02.466Z,101873.69
2023-03-03T17:25:38.440Z,101884.41
2023-03-03T17:28:19.501Z,101881.06
2023-03-03T17:30:54.274Z,101887.69
2023-03-03T17:33:42.050Z,101889.34
2023-03-03T17:36:22.599Z,101888.91
2023-03-03T17:39:10.469Z,101896.97
2023-03-03T17:41:43.459Z,101887.09
2023-03-03T17:44:17.169Z,101892.97
2023-03-03T17:46:48.664Z,101899.03
2023-03-03T17:49:55.028Z,101900.16
2023-03-03T17:52:52.443Z,101908.03
2023-03-03T17:55:47.767Z,101913.47
2023-03-03T17:58:42.674Z,101920.00
2023-03-03T18:01:21.278Z,101924.97
2023-03-03T18:04:14.757Z,101926.84
2023-03-03T18:07:12.670Z,101937.88
2023-03-03T18:09:57.646Z,101935.59
2023-03-03T18:12:38.395Z,101938.38
2023-03-03T18:15:43.388Z,101943.50
2023-03-03T18:18:25.432Z,101943.28
2023-03-03T18:21:01.696Z,101950.91
2023-03-03T18:23:41.860Z,101952.47
2023-03-03T18:26:33.452Z,101967.09
2023-03-03T18:29:22.176Z,101970.34
2023-03-03T18:32:05.607Z,101969.19
2023-03-03T18:34:38.952Z,101973.53
2023-03-03T18:37:11.887Z,101972.06
2023-03-03T18:39:45.763Z,101976.78
2023-03-03T18:42:37.665Z,101983.75
2023-03-03T18:45:51.437Z,101987.75
2023-03-03T18:48:20.152Z,101991.66
2023-03-03T18:50:49.773Z,102000.31
2023-03-03T18:53:25.213Z,102001.91
2023-03-03T18:55:54.667Z,102003.59
2023-03-03T18:58:38.592Z,102010.09
2023-03-03T19:01:41.780Z,102013.09
2023-03-03T19:04:19.695Z,102010.91
2023-03-03T19:07:18.869Z,102008.13
2023-03-03T19:09:57.250Z,102019.00
2023-03-03T19:12:48.488Z,102021.63
2023-03-03T19:15:48.053Z,102030.56
2023-03-03T19:18:19.595Z,102025.38
2023-03-03T19:20:50.518Z,102039.09
2023-03-03T19:23:20.196Z,102032.63
2023-03-03T19:26:07.931Z,102042.22
2023-03-03T19:28:43.590Z,102041.44
2023-03-03T19:31:19.367Z,102040.81
2023-03-03T19:33:56.916Z,102047.63
2023-03-03T19:36:44.410Z,102044.13
2023-03-03T19:39:49.280Z,102052.16
2023-03-03T19:42:31.115Z,102046.91
2023-03-03T19:45:17.667Z,102052.69
2023-03-03T19:47:49.190Z,102058.13
2023-03-03T19:50:31.036Z,102057.75
2023-03-03T19:53:08.606Z,102053.03
2023-03-03T19:55:51.710Z,102049.28
2023-03-03T19:58:30.238Z,102058.91
2023-03-03T20:01:08.382Z,102064.59
2023-03-03T20:04:17.520Z,102060.34
2023-03-03T20:06:56.131Z,102073.63
2023-03-03T20:09:31.900Z,102075.31
2023-03-03T20:12:23.244Z,102063.81
2023-03-03T20:14:57.868Z,102080.63
2023-03-03T20:17:55.264Z,102079.00
2023-03-03T20:20:47.743Z,102078.91
2023-03-03T20:23:22.930Z,102085.81
2023-03-03T20:25:56.621Z,102086.59
2023-03-03T20:28:56.225Z,102098.19
2023-03-03T20:31:32.641Z,102099.84
2023-03-03T20:34:10.484Z,102097.34
2023-03-03T20:36:49.723Z,102101.84
2023-03-03T20:39:29.520Z,102103.63
2023-03-03T20:42:08.499Z,102100.31
2023-03-03T20:44:49.872Z,102111.03
2023-03-03T20:47:30.072Z,102103.97
2023-03-03T20:50:15.582Z,102114.97
2023-03-03T20:52:55.357Z,102109.28
2023-03-03T20:55:32.055Z,102115.50
2023-03-03T20:58:06.826Z,102111.22
2023-03-03T21:00:43.646Z,102118.03
2023-03-03T21:03:20.068Z,102115.50
2023-03-03T21:05:59.479Z,102113.63
2023-03-03T21:08:53.276Z,102125.19
2023-03-03T21:11:24.169Z,102115.72
2023-03-03T21:13:54.286Z,102110.38
2023-03-03T21:16:33.347Z,102115.75
2023-03-03T21:19:03.309Z,102122.06
2023-03-03T21:21:33.315Z,102121.81
2023-03-03T21:24:01.086Z,102128.69
2023-03-03T21:26:56.667Z,102128.84
2023-03-03T21:29:27.070Z,102125.41
2023-03-03T21:31:58.310Z,102128.94
2023-03-03T21:34:29.339Z,102143.06
2023-03-03T21:36:58.080Z,102142.16
2023-03-03T21:39:30.907Z,102146.47
2023-03-03T21:42:02.873Z,102137.53
2023-03-03T21:44:33.573Z,102132.31
2023-03-03T21:47:01.973Z,102133.19
2023-03-03T21:49:30.186Z,102146.53
2023-03-03T21:51:58.097Z,102135.84
2023-03-03T21:54:25.988Z,102132.31
2023-03-03T21:56:53.873Z,102137.81
2023-03-03T21:59:23.132Z,102136.88
2023-03-03T22:01:50.994Z,102136.84
2023-03-03T22:04:18.977Z,102137.72
2023-03-03T22:06:47.230Z,102141.28
2023-03-03T22:09:15.207Z,102139.69
2023-03-03T22:11:43.039Z,102148.63
2023-03-03T22:14:10.988Z,102151.97
2023-03-03T22:16:40.167Z,102147.59
2023-03-03T22:19:10.147Z,102152.84
2023-03-03T22:21:39.176Z,102151.09
2023-03-03T22:24:08.795Z,102150.09
2023-03-03T22:26:36.721Z,102163.25
2023-03-03T22:29:05.500Z,102171.13
2023-03-03T22:31:33.549Z,102161.44
2023-03-03T22:34:02.803Z,102167.69
2023-03-03T22:36:30.543Z,102163.31
2023-03-03T22:38:58.312Z,102165.91
2023-03-03T22:41:26.093Z,102176.50
2023-03-03T22:43:53.856Z,102164.94
2023-03-03T22:46:21.795Z,102166.91
2023-03-03T22:48:49.635Z,102159.94
2023-03-03T22:51:22.040Z,102166.97
2023-03-03T22:53:49.954Z,102163.56
2023-03-03T22:56:17.739Z,102170.69
2023-03-03T22:58:45.520Z,102169.06
2023-03-03T23:01:13.306Z,102177.03
2023-03-03T23:03:41.113Z,102177.97
2023-03-03T23:06:09.051Z,102175.31
2023-03-03T23:08:38.214Z,102184.13
2023-03-03T23:11:06.248Z,102175.25
2023-03-03T23:13:35.180Z,102183.22
2023-03-03T23:16:03.108Z,102187.63
2023-03-03T23:18:30.915Z,102182.34
2023-03-03T23:20:58.637Z,102178.88
2023-03-03T23:23:26.406Z,102187.66
2023-03-03T23:25:55.482Z,102182.38
2023-03-03T23:28:23.220Z,102186.81
2023-03-03T23:30:52.359Z,102185.03
2023-03-03T23:33:20.379Z,102184.13
2023-03-03T23:35:49.789Z,102173.53
2023-03-03T23:38:17.901Z,102175.34
2023-03-03T23:40:46.711Z,102176.22
2023-03-03T23:43:16.356Z,102189.41
2023-03-03T23:45:44.226Z,102192.06
2023-03-03T23:48:12.496Z,102193.75
2023-03-03T23:50:40.747Z,102196.44
2023-03-03T23:53:09.079Z,102187.66
2023-03-03T23:55:37.558Z,102192.06
2023-03-03T23:58:06.466Z,102189.47
